sensor_id;sensor_type;location;lat;lon;timestamp;P1;durP1;ratioP1;P2;durP2;ratioP2
4174;SDS011;2101;48.290;14.382;2022-09-13T00:02:19;17.37;;;2.30;;
4174;SDS011;2101;48.290;14.382;2022-09-13T00:04:45;16.70;;;2.67;;
4174;SDS011;2101;48.290;14.382;2022-09-13T00:07:11;16.90;;;2.23;;
4174;SDS011;2101;48.290;14.382;2022-09-13T00:09:37;16.10;;;2.47;;
4174;SDS011;2101;48.290;14.382;2022-09-13T00:12:04;15.33;;;2.47;;
4174;SDS011;2101;48.290;14.382;2022-09-13T00:14:30;15.60;;;2.53;;
4174;SDS011;2101;48.290;14.382;2022-09-13T00:16:56;15.70;;;2.20;;
4174;SDS011;2101;48.290;14.382;2022-09-13T00:19:22;16.60;;;2.90;;
4174;SDS011;2101;48.290;14.382;2022-09-13T00:21:48;16.23;;;2.43;;
4174;SDS011;2101;48.290;14.382;2022-09-13T00:24:15;19.30;;;2.53;;
4174;SDS011;2101;48.290;14.382;2022-09-13T00:26:41;23.77;;;3.07;;
4174;SDS011;2101;48.290;14.382;2022-09-13T00:29:07;16.00;;;2.53;;
4174;SDS011;2101;48.290;14.382;2022-09-13T00:31:33;16.10;;;2.47;;
4174;SDS011;2101;48.290;14.382;2022-09-13T00:33:59;16.00;;;2.20;;
4174;SDS011;2101;48.290;14.382;2022-09-13T00:36:25;17.20;;;2.63;;
4174;SDS011;2101;48.290;14.382;2022-09-13T00:38:51;15.90;;;2.33;;
4174;SDS011;2101;48.290;14.382;2022-09-13T00:41:19;17.13;;;2.63;;
4174;SDS011;2101;48.290;14.382;2022-09-13T00:43:49;16.40;;;2.80;;
4174;SDS011;2101;48.290;14.382;2022-09-13T00:46:20;23.97;;;3.07;;
4174;SDS011;2101;48.290;14.382;2022-09-13T00:48:48;18.50;;;2.97;;
4174;SDS011;2101;48.290;14.382;2022-09-13T00:51:15;16.07;;;2.53;;
4174;SDS011;2101;48.290;14.382;2022-09-13T00:53:42;16.00;;;2.10;;
4174;SDS011;2101;48.290;14.382;2022-09-13T00:56:10;17.93;;;3.23;;
4174;SDS011;2101;48.290;14.382;2022-09-13T01:01:08;16.60;;;2.70;;
4174;SDS011;2101;48.290;14.382;2022-09-13T01:03:35;16.40;;;2.40;;
4174;SDS011;2101;48.290;14.382;2022-09-13T01:06:07;17.33;;;2.80;;
4174;SDS011;2101;48.290;14.382;2022-09-13T01:08:34;16.67;;;2.90;;
4174;SDS011;2101;48.290;14.382;2022-09-13T01:11:02;15.63;;;2.40;;
4174;SDS011;2101;48.290;14.382;2022-09-13T01:13:29;15.50;;;2.50;;
4174;SDS011;2101;48.290;14.382;2022-09-13T01:15:56;19.10;;;2.00;;
4174;SDS011;2101;48.290;14.382;2022-09-13T01:18:23;16.03;;;2.43;;
4174;SDS011;2101;48.290;14.382;2022-09-13T01:26:11;19.87;;;2.63;;
4174;SDS011;2101;48.290;14.382;2022-09-13T01:36:29;17.60;;;2.60;;
4174;SDS011;2101;48.290;14.382;2022-09-13T01:41:48;18.67;;;3.10;;
4174;SDS011;2101;48.290;14.382;2022-09-13T01:44:28;17.33;;;2.67;;
4174;SDS011;2101;48.290;14.382;2022-09-13T01:49:46;16.40;;;2.50;;
4174;SDS011;2101;48.290;14.382;2022-09-13T01:57:43;17.33;;;2.80;;
4174;SDS011;2101;48.290;14.382;2022-09-13T02:00:12;21.07;;;2.87;;
4174;SDS011;2101;48.290;14.382;2022-09-13T02:02:45;16.70;;;2.70;;
4174;SDS011;2101;48.290;14.382;2022-09-13T02:05:14;19.20;;;3.10;;
4174;SDS011;2101;48.290;14.382;2022-09-13T02:07:42;16.77;;;2.60;;
4174;SDS011;2101;48.290;14.382;2022-09-13T02:10:29;17.70;;;3.00;;
4174;SDS011;2101;48.290;14.382;2022-09-13T02:12:55;15.50;;;2.17;;
4174;SDS011;2101;48.290;14.382;2022-09-13T02:15:24;18.60;;;2.80;;
4174;SDS011;2101;48.290;14.382;2022-09-13T02:17:53;20.60;;;2.83;;
4174;SDS011;2101;48.290;14.382;2022-09-13T02:20:26;19.43;;;2.80;;
4174;SDS011;2101;48.290;14.382;2022-09-13T02:22:54;19.60;;;2.50;;
4174;SDS011;2101;48.290;14.382;2022-09-13T02:25:21;18.70;;;2.37;;
4174;SDS011;2101;48.290;14.382;2022-09-13T02:27:48;17.43;;;2.90;;
4174;SDS011;2101;48.290;14.382;2022-09-13T02:30:15;17.70;;;3.03;;
4174;SDS011;2101;48.290;14.382;2022-09-13T02:35:11;17.50;;;3.07;;
4174;SDS011;2101;48.290;14.382;2022-09-13T02:37:39;18.90;;;3.30;;
4174;SDS011;2101;48.290;14.382;2022-09-13T02:40:07;16.90;;;2.80;;
4174;SDS011;2101;48.290;14.382;2022-09-13T02:42:36;16.93;;;2.70;;
4174;SDS011;2101;48.290;14.382;2022-09-13T02:45:05;18.40;;;3.03;;
4174;SDS011;2101;48.290;14.382;2022-09-13T02:52:47;15.93;;;2.53;;
4174;SDS011;2101;48.290;14.382;2022-09-13T02:55:17;18.87;;;2.83;;
4174;SDS011;2101;48.290;14.382;2022-09-13T03:00:14;17.30;;;3.07;;
4174;SDS011;2101;48.290;14.382;2022-09-13T03:02:40;16.43;;;2.70;;
4174;SDS011;2101;48.290;14.382;2022-09-13T03:05:07;17.10;;;3.20;;
4174;SDS011;2101;48.290;14.382;2022-09-13T03:07:34;17.03;;;2.87;;
4174;SDS011;2101;48.290;14.382;2022-09-13T03:10:03;16.47;;;2.73;;
4174;SDS011;2101;48.290;14.382;2022-09-13T03:17:46;16.73;;;2.93;;
4174;SDS011;2101;48.290;14.382;2022-09-13T03:20:20;16.87;;;2.70;;
4174;SDS011;2101;48.290;14.382;2022-09-13T03:22:59;19.33;;;2.60;;
4174;SDS011;2101;48.290;14.382;2022-09-13T03:25:30;19.50;;;3.40;;
4174;SDS011;2101;48.290;14.382;2022-09-13T03:30:25;17.33;;;2.70;;
4174;SDS011;2101;48.290;14.382;2022-09-13T03:35:38;17.40;;;2.73;;
4174;SDS011;2101;48.290;14.382;2022-09-13T03:38:12;18.10;;;2.63;;
4174;SDS011;2101;48.290;14.382;2022-09-13T03:43:13;16.43;;;2.33;;
4174;SDS011;2101;48.290;14.382;2022-09-13T03:45:42;16.13;;;2.60;;
4174;SDS011;2101;48.290;14.382;2022-09-13T03:48:09;16.30;;;2.80;;
4174;SDS011;2101;48.290;14.382;2022-09-13T03:50:36;18.60;;;3.23;;
4174;SDS011;2101;48.290;14.382;2022-09-13T03:53:05;16.40;;;2.57;;
4174;SDS011;2101;48.290;14.382;2022-09-13T03:55:32;16.63;;;2.80;;
4174;SDS011;2101;48.290;14.382;2022-09-13T03:57:59;17.17;;;2.63;;
4174;SDS011;2101;48.290;14.382;2022-09-13T04:00:26;15.70;;;2.53;;
4174;SDS011;2101;48.290;14.382;2022-09-13T04:02:53;18.80;;;2.93;;
4174;SDS011;2101;48.290;14.382;2022-09-13T04:05:19;16.10;;;2.83;;
4174;SDS011;2101;48.290;14.382;2022-09-13T04:07:45;16.40;;;2.70;;
4174;SDS011;2101;48.290;14.382;2022-09-13T04:10:12;16.57;;;2.90;;
4174;SDS011;2101;48.290;14.382;2022-09-13T04:12:38;16.67;;;3.10;;
4174;SDS011;2101;48.290;14.382;2022-09-13T04:15:05;16.77;;;3.00;;
4174;SDS011;2101;48.290;14.382;2022-09-13T04:17:32;17.70;;;3.13;;
4174;SDS011;2101;48.290;14.382;2022-09-13T04:19:58;24.70;;;2.90;;
4174;SDS011;2101;48.290;14.382;2022-09-13T04:22:24;27.67;;;3.00;;
4174;SDS011;2101;48.290;14.382;2022-09-13T04:24:50;16.50;;;2.63;;
4174;SDS011;2101;48.290;14.382;2022-09-13T04:27:17;21.67;;;3.33;;
4174;SDS011;2101;48.290;14.382;2022-09-13T04:29:43;16.97;;;3.00;;
4174;SDS011;2101;48.290;14.382;2022-09-13T04:32:09;17.10;;;3.10;;
4174;SDS011;2101;48.290;14.382;2022-09-13T04:34:35;17.37;;;3.30;;
4174;SDS011;2101;48.290;14.382;2022-09-13T04:37:01;19.40;;;3.50;;
4174;SDS011;2101;48.290;14.382;2022-09-13T04:39:27;17.80;;;3.47;;
4174;SDS011;2101;48.290;14.382;2022-09-13T04:41:54;18.00;;;3.13;;
4174;SDS011;2101;48.290;14.382;2022-09-13T04:44:20;18.97;;;3.20;;
4174;SDS011;2101;48.290;14.382;2022-09-13T04:46:48;17.60;;;3.10;;
4174;SDS011;2101;48.290;14.382;2022-09-13T04:49:15;18.10;;;3.43;;
4174;SDS011;2101;48.290;14.382;2022-09-13T04:51:42;16.67;;;2.43;;
4174;SDS011;2101;48.290;14.382;2022-09-13T04:54:08;19.20;;;3.10;;
4174;SDS011;2101;48.290;14.382;2022-09-13T04:56:35;16.30;;;2.90;;
4174;SDS011;2101;48.290;14.382;2022-09-13T04:59:01;22.37;;;3.50;;
4174;SDS011;2101;48.290;14.382;2022-09-13T05:01:28;17.20;;;3.17;;
4174;SDS011;2101;48.290;14.382;2022-09-13T05:03:54;18.83;;;3.50;;
4174;SDS011;2101;48.290;14.382;2022-09-13T05:06:20;18.47;;;2.60;;
4174;SDS011;2101;48.290;14.382;2022-09-13T05:08:51;17.60;;;3.13;;
4174;SDS011;2101;48.290;14.382;2022-09-13T05:11:19;17.50;;;2.87;;
4174;SDS011;2101;48.290;14.382;2022-09-13T05:13:53;17.40;;;2.80;;
4174;SDS011;2101;48.290;14.382;2022-09-13T05:16:20;16.50;;;2.67;;
4174;SDS011;2101;48.290;14.382;2022-09-13T05:18:46;17.87;;;3.27;;
4174;SDS011;2101;48.290;14.382;2022-09-13T05:21:13;17.03;;;2.90;;
4174;SDS011;2101;48.290;14.382;2022-09-13T05:23:39;16.23;;;2.80;;
4174;SDS011;2101;48.290;14.382;2022-09-13T05:26:05;16.67;;;2.90;;
4174;SDS011;2101;48.290;14.382;2022-09-13T05:28:33;18.57;;;3.80;;
4174;SDS011;2101;48.290;14.382;2022-09-13T05:31:06;17.03;;;2.77;;
4174;SDS011;2101;48.290;14.382;2022-09-13T05:33:35;18.30;;;3.00;;
4174;SDS011;2101;48.290;14.382;2022-09-13T05:36:02;17.37;;;3.10;;
4174;SDS011;2101;48.290;14.382;2022-09-13T05:38:29;19.63;;;2.60;;
4174;SDS011;2101;48.290;14.382;2022-09-13T05:40:56;15.40;;;2.70;;
4174;SDS011;2101;48.290;14.382;2022-09-13T05:43:23;17.27;;;3.17;;
4174;SDS011;2101;48.290;14.382;2022-09-13T05:45:49;16.53;;;3.17;;
4174;SDS011;2101;48.290;14.382;2022-09-13T05:48:15;20.50;;;2.77;;
4174;SDS011;2101;48.290;14.382;2022-09-13T05:50:41;24.30;;;3.23;;
4174;SDS011;2101;48.290;14.382;2022-09-13T05:53:07;20.10;;;3.60;;
4174;SDS011;2101;48.290;14.382;2022-09-13T05:55:33;16.10;;;2.83;;
4174;SDS011;2101;48.290;14.382;2022-09-13T05:58:00;15.20;;;2.37;;
4174;SDS011;2101;48.290;14.382;2022-09-13T06:00:27;15.70;;;2.67;;
4174;SDS011;2101;48.290;14.382;2022-09-13T06:02:54;16.57;;;3.30;;
4174;SDS011;2101;48.290;14.382;2022-09-13T06:05:21;22.53;;;3.10;;
4174;SDS011;2101;48.290;14.382;2022-09-13T06:07:48;17.70;;;2.90;;
4174;SDS011;2101;48.290;14.382;2022-09-13T06:10:15;16.30;;;2.73;;
4174;SDS011;2101;48.290;14.382;2022-09-13T06:12:41;22.10;;;3.10;;
4174;SDS011;2101;48.290;14.382;2022-09-13T06:15:07;19.17;;;3.07;;
4174;SDS011;2101;48.290;14.382;2022-09-13T06:17:33;18.33;;;3.47;;
4174;SDS011;2101;48.290;14.382;2022-09-13T06:20:00;16.73;;;3.07;;
4174;SDS011;2101;48.290;14.382;2022-09-13T06:22:26;34.03;;;2.97;;
4174;SDS011;2101;48.290;14.382;2022-09-13T06:24:57;16.80;;;2.87;;
4174;SDS011;2101;48.290;14.382;2022-09-13T06:27:23;17.40;;;3.23;;
4174;SDS011;2101;48.290;14.382;2022-09-13T06:29:49;18.73;;;2.97;;
4174;SDS011;2101;48.290;14.382;2022-09-13T06:32:16;16.30;;;2.73;;
4174;SDS011;2101;48.290;14.382;2022-09-13T06:34:42;18.23;;;3.40;;
4174;SDS011;2101;48.290;14.382;2022-09-13T06:37:08;17.77;;;3.57;;
4174;SDS011;2101;48.290;14.382;2022-09-13T06:39:34;17.20;;;3.10;;
4174;SDS011;2101;48.290;14.382;2022-09-13T06:42:00;19.43;;;3.70;;
4174;SDS011;2101;48.290;14.382;2022-09-13T06:44:26;16.10;;;2.43;;
4174;SDS011;2101;48.290;14.382;2022-09-13T06:46:53;16.57;;;3.10;;
4174;SDS011;2101;48.290;14.382;2022-09-13T06:49:19;19.90;;;2.63;;
4174;SDS011;2101;48.290;14.382;2022-09-13T06:51:45;18.40;;;2.60;;
4174;SDS011;2101;48.290;14.382;2022-09-13T06:54:11;16.43;;;2.80;;
4174;SDS011;2101;48.290;14.382;2022-09-13T06:56:37;17.30;;;2.43;;
4174;SDS011;2101;48.290;14.382;2022-09-13T06:59:05;16.73;;;2.83;;
4174;SDS011;2101;48.290;14.382;2022-09-13T07:01:35;17.93;;;3.17;;
4174;SDS011;2101;48.290;14.382;2022-09-13T07:04:02;16.27;;;2.70;;
4174;SDS011;2101;48.290;14.382;2022-09-13T07:06:30;16.30;;;2.10;;
4174;SDS011;2101;48.290;14.382;2022-09-13T07:08:57;18.60;;;3.07;;
4174;SDS011;2101;48.290;14.382;2022-09-13T07:11:24;20.70;;;3.30;;
4174;SDS011;2101;48.290;14.382;2022-09-13T07:13:54;20.47;;;3.30;;
4174;SDS011;2101;48.290;14.382;2022-09-13T07:16:22;15.67;;;2.20;;
4174;SDS011;2101;48.290;14.382;2022-09-13T07:18:51;18.03;;;3.60;;
4174;SDS011;2101;48.290;14.382;2022-09-13T07:21:18;16.33;;;2.93;;
4174;SDS011;2101;48.290;14.382;2022-09-13T07:23:44;16.67;;;2.83;;
4174;SDS011;2101;48.290;14.382;2022-09-13T07:26:10;16.40;;;3.13;;
4174;SDS011;2101;48.290;14.382;2022-09-13T07:28:37;17.60;;;3.10;;
4174;SDS011;2101;48.290;14.382;2022-09-13T07:31:14;15.80;;;2.50;;
4174;SDS011;2101;48.290;14.382;2022-09-13T07:33:41;15.60;;;2.70;;
4174;SDS011;2101;48.290;14.382;2022-09-13T07:36:08;17.67;;;3.27;;
4174;SDS011;2101;48.290;14.382;2022-09-13T07:38:36;20.97;;;3.23;;
4174;SDS011;2101;48.290;14.382;2022-09-13T07:41:02;18.30;;;2.80;;
4174;SDS011;2101;48.290;14.382;2022-09-13T07:43:31;18.30;;;3.30;;
4174;SDS011;2101;48.290;14.382;2022-09-13T07:45:59;17.43;;;3.20;;
4174;SDS011;2101;48.290;14.382;2022-09-13T07:48:27;17.60;;;3.00;;
4174;SDS011;2101;48.290;14.382;2022-09-13T07:50:59;15.40;;;2.37;;
4174;SDS011;2101;48.290;14.382;2022-09-13T07:53:26;15.77;;;3.10;;
4174;SDS011;2101;48.290;14.382;2022-09-13T07:55:52;15.90;;;2.60;;
4174;SDS011;2101;48.290;14.382;2022-09-13T07:58:19;15.33;;;2.63;;
4174;SDS011;2101;48.290;14.382;2022-09-13T08:00:45;15.93;;;2.70;;
4174;SDS011;2101;48.290;14.382;2022-09-13T08:03:12;14.70;;;2.17;;
4174;SDS011;2101;48.290;14.382;2022-09-13T08:05:38;16.20;;;3.10;;
4174;SDS011;2101;48.290;14.382;2022-09-13T08:08:04;20.10;;;3.30;;
4174;SDS011;2101;48.290;14.382;2022-09-13T08:10:31;19.90;;;3.03;;
4174;SDS011;2101;48.290;14.382;2022-09-13T08:12:58;19.07;;;3.50;;
4174;SDS011;2101;48.290;14.382;2022-09-13T08:15:24;19.93;;;2.47;;
4174;SDS011;2101;48.290;14.382;2022-09-13T08:17:50;17.73;;;3.43;;
4174;SDS011;2101;48.290;14.382;2022-09-13T08:20:18;25.30;;;3.20;;
4174;SDS011;2101;48.290;14.382;2022-09-13T08:22:48;15.67;;;2.77;;
4174;SDS011;2101;48.290;14.382;2022-09-13T08:25:14;15.57;;;2.90;;
4174;SDS011;2101;48.290;14.382;2022-09-13T08:27:41;20.30;;;3.00;;
4174;SDS011;2101;48.290;14.382;2022-09-13T08:30:07;16.80;;;3.00;;
4174;SDS011;2101;48.290;14.382;2022-09-13T08:32:33;21.23;;;3.40;;
4174;SDS011;2101;48.290;14.382;2022-09-13T08:34:59;17.60;;;2.90;;
4174;SDS011;2101;48.290;14.382;2022-09-13T08:37:26;17.80;;;2.90;;
4174;SDS011;2101;48.290;14.382;2022-09-13T08:39:52;15.67;;;2.80;;
4174;SDS011;2101;48.290;14.382;2022-09-13T08:42:21;17.47;;;3.27;;
4174;SDS011;2101;48.290;14.382;2022-09-13T08:44:53;20.77;;;4.10;;
4174;SDS011;2101;48.290;14.382;2022-09-13T08:47:22;23.20;;;3.13;;
4174;SDS011;2101;48.290;14.382;2022-09-13T08:49:51;17.37;;;3.63;;
4174;SDS011;2101;48.290;14.382;2022-09-13T08:52:37;26.70;;;3.70;;
4174;SDS011;2101;48.290;14.382;2022-09-13T08:55:13;17.10;;;3.00;;
4174;SDS011;2101;48.290;14.382;2022-09-13T08:57:46;16.70;;;2.97;;
4174;SDS011;2101;48.290;14.382;2022-09-13T09:00:30;17.00;;;3.60;;
4174;SDS011;2101;48.290;14.382;2022-09-13T09:05:45;15.90;;;3.13;;
4174;SDS011;2101;48.290;14.382;2022-09-13T09:10:45;30.10;;;3.50;;
4174;SDS011;2101;48.290;14.382;2022-09-13T09:13:15;18.40;;;3.90;;
4174;SDS011;2101;48.290;14.382;2022-09-13T09:15:47;18.60;;;4.00;;
4174;SDS011;2101;48.290;14.382;2022-09-13T09:18:17;18.20;;;3.37;;
4174;SDS011;2101;48.290;14.382;2022-09-13T09:20:49;19.20;;;3.97;;
4174;SDS011;2101;48.290;14.382;2022-09-13T09:26:10;19.30;;;3.50;;
4174;SDS011;2101;48.290;14.382;2022-09-13T09:28:38;17.33;;;3.30;;
4174;SDS011;2101;48.290;14.382;2022-09-13T09:31:08;16.60;;;3.20;;
4174;SDS011;2101;48.290;14.382;2022-09-13T09:33:55;17.27;;;3.43;;
4174;SDS011;2101;48.290;14.382;2022-09-13T09:37:06;18.30;;;3.20;;
4174;SDS011;2101;48.290;14.382;2022-09-13T09:39:13;30.93;;;3.30;;
4174;SDS011;2101;48.290;14.382;2022-09-13T09:41:40;16.47;;;3.20;;
4174;SDS011;2101;48.290;14.382;2022-09-13T09:46:35;17.70;;;3.30;;
4174;SDS011;2101;48.290;14.382;2022-09-13T09:52:20;23.60;;;2.80;;
4174;SDS011;2101;48.290;14.382;2022-09-13T09:54:48;16.67;;;2.73;;
4174;SDS011;2101;48.290;14.382;2022-09-13T09:57:15;19.10;;;3.27;;
4174;SDS011;2101;48.290;14.382;2022-09-13T09:59:44;17.73;;;3.10;;
4174;SDS011;2101;48.290;14.382;2022-09-13T10:02:18;17.53;;;3.23;;
4174;SDS011;2101;48.290;14.382;2022-09-13T10:04:57;17.23;;;2.80;;
4174;SDS011;2101;48.290;14.382;2022-09-13T10:07:29;16.93;;;2.80;;
4174;SDS011;2101;48.290;14.382;2022-09-13T10:10:01;16.07;;;2.90;;
4174;SDS011;2101;48.290;14.382;2022-09-13T10:12:34;18.50;;;3.63;;
4174;SDS011;2101;48.290;14.382;2022-09-13T10:15:13;17.27;;;3.07;;
4174;SDS011;2101;48.290;14.382;2022-09-13T10:17:41;17.13;;;3.20;;
4174;SDS011;2101;48.290;14.382;2022-09-13T10:22:39;18.20;;;3.70;;
4174;SDS011;2101;48.290;14.382;2022-09-13T10:27:40;18.17;;;3.33;;
4174;SDS011;2101;48.290;14.382;2022-09-13T10:30:16;19.30;;;3.10;;
4174;SDS011;2101;48.290;14.382;2022-09-13T10:32:53;23.93;;;3.50;;
4174;SDS011;2101;48.290;14.382;2022-09-13T10:35:20;19.20;;;3.47;;
4174;SDS011;2101;48.290;14.382;2022-09-13T10:37:46;20.80;;;3.87;;
4174;SDS011;2101;48.290;14.382;2022-09-13T10:42:58;17.23;;;2.70;;
4174;SDS011;2101;48.290;14.382;2022-09-13T10:45:26;16.93;;;2.90;;
4174;SDS011;2101;48.290;14.382;2022-09-13T10:47:54;20.97;;;3.27;;
4174;SDS011;2101;48.290;14.382;2022-09-13T10:50:27;24.70;;;3.50;;
4174;SDS011;2101;48.290;14.382;2022-09-13T10:52:58;18.30;;;3.30;;
4174;SDS011;2101;48.290;14.382;2022-09-13T10:57:52;19.67;;;3.00;;
4174;SDS011;2101;48.290;14.382;2022-09-13T11:00:22;17.83;;;2.80;;
4174;SDS011;2101;48.290;14.382;2022-09-13T11:05:34;19.87;;;2.90;;
4174;SDS011;2101;48.290;14.382;2022-09-13T11:13:06;19.87;;;2.97;;
4174;SDS011;2101;48.290;14.382;2022-09-13T11:18:39;18.93;;;2.60;;
4174;SDS011;2101;48.290;14.382;2022-09-13T11:31:37;19.87;;;2.87;;
4174;SDS011;2101;48.290;14.382;2022-09-13T11:36:55;17.40;;;2.60;;
4174;SDS011;2101;48.290;14.382;2022-09-13T11:39:29;16.50;;;2.47;;
4174;SDS011;2101;48.290;14.382;2022-09-13T11:44:42;21.53;;;3.00;;
4174;SDS011;2101;48.290;14.382;2022-09-13T11:47:23;17.47;;;2.97;;
4174;SDS011;2101;48.290;14.382;2022-09-13T11:52:31;18.70;;;2.53;;
4174;SDS011;2101;48.290;14.382;2022-09-13T11:57:47;18.40;;;2.70;;
4174;SDS011;2101;48.290;14.382;2022-09-13T12:05:19;15.13;;;2.33;;
4174;SDS011;2101;48.290;14.382;2022-09-13T12:10:19;16.83;;;2.17;;
4174;SDS011;2101;48.290;14.382;2022-09-13T12:12:47;16.53;;;2.43;;
4174;SDS011;2101;48.290;14.382;2022-09-13T12:15:22;17.43;;;2.10;;
4174;SDS011;2101;48.290;14.382;2022-09-13T12:17:55;17.00;;;2.20;;
4174;SDS011;2101;48.290;14.382;2022-09-13T12:22:57;17.53;;;2.70;;
4174;SDS011;2101;48.290;14.382;2022-09-13T12:25:27;24.63;;;3.13;;
4174;SDS011;2101;48.290;14.382;2022-09-13T12:28:07;19.03;;;2.97;;
4174;SDS011;2101;48.290;14.382;2022-09-13T12:30:39;15.60;;;2.10;;
4174;SDS011;2101;48.290;14.382;2022-09-13T12:33:07;18.97;;;3.10;;
4174;SDS011;2101;48.290;14.382;2022-09-13T12:35:35;21.77;;;2.30;;
4174;SDS011;2101;48.290;14.382;2022-09-13T12:43:37;15.20;;;1.63;;
4174;SDS011;2101;48.290;14.382;2022-09-13T12:54:23;13.87;;;1.53;;
4174;SDS011;2101;48.290;14.382;2022-09-13T13:02:17;14.50;;;1.67;;
4174;SDS011;2101;48.290;14.382;2022-09-13T13:04:47;17.20;;;1.47;;
4174;SDS011;2101;48.290;14.382;2022-09-13T13:07:20;16.00;;;1.73;;
4174;SDS011;2101;48.290;14.382;2022-09-13T13:09:47;19.20;;;2.10;;
4174;SDS011;2101;48.290;14.382;2022-09-13T13:14:51;15.80;;;1.57;;
4174;SDS011;2101;48.290;14.382;2022-09-13T13:22:48;15.40;;;1.50;;
4174;SDS011;2101;48.290;14.382;2022-09-13T13:27:55;17.97;;;2.00;;
4174;SDS011;2101;48.290;14.382;2022-09-13T13:30:41;16.97;;;1.43;;
4174;SDS011;2101;48.290;14.382;2022-09-13T13:35:37;15.77;;;1.80;;
4174;SDS011;2101;48.290;14.382;2022-09-13T13:40:49;14.00;;;1.77;;
4174;SDS011;2101;48.290;14.382;2022-09-13T13:43:28;16.53;;;1.93;;
4174;SDS011;2101;48.290;14.382;2022-09-13T13:45:55;17.63;;;1.50;;
4174;SDS011;2101;48.290;14.382;2022-09-13T13:48:35;16.90;;;1.77;;
4174;SDS011;2101;48.290;14.382;2022-09-13T13:51:11;13.50;;;1.30;;
4174;SDS011;2101;48.290;14.382;2022-09-13T13:53:40;14.13;;;1.50;;
4174;SDS011;2101;48.290;14.382;2022-09-13T13:56:14;14.00;;;1.50;;
4174;SDS011;2101;48.290;14.382;2022-09-13T13:58:43;14.67;;;1.53;;
4174;SDS011;2101;48.290;14.382;2022-09-13T14:01:13;18.30;;;1.80;;
4174;SDS011;2101;48.290;14.382;2022-09-13T14:06:29;26.50;;;1.83;;
4174;SDS011;2101;48.290;14.382;2022-09-13T14:19:33;14.03;;;1.53;;
4174;SDS011;2101;48.290;14.382;2022-09-13T14:22:20;18.23;;;1.60;;
4174;SDS011;2101;48.290;14.382;2022-09-13T14:24:48;14.00;;;1.53;;
4174;SDS011;2101;48.290;14.382;2022-09-13T14:27:16;13.70;;;1.47;;
4174;SDS011;2101;48.290;14.382;2022-09-13T14:29:49;14.40;;;1.63;;
4174;SDS011;2101;48.290;14.382;2022-09-13T14:32:17;16.17;;;1.50;;
4174;SDS011;2101;48.290;14.382;2022-09-13T14:34:51;15.50;;;2.10;;
4174;SDS011;2101;48.290;14.382;2022-09-13T14:37:18;24.30;;;1.70;;
4174;SDS011;2101;48.290;14.382;2022-09-13T14:39:53;19.40;;;1.50;;
4174;SDS011;2101;48.290;14.382;2022-09-13T14:42:20;14.23;;;1.73;;
4174;SDS011;2101;48.290;14.382;2022-09-13T14:44:46;13.90;;;1.53;;
4174;SDS011;2101;48.290;14.382;2022-09-13T14:49:45;14.20;;;1.77;;
4174;SDS011;2101;48.290;14.382;2022-09-13T14:52:20;16.30;;;1.70;;
4174;SDS011;2101;48.290;14.382;2022-09-13T14:54:49;17.60;;;2.20;;
4174;SDS011;2101;48.290;14.382;2022-09-13T14:57:23;15.27;;;2.10;;
4174;SDS011;2101;48.290;14.382;2022-09-13T14:59:51;15.83;;;2.07;;
4174;SDS011;2101;48.290;14.382;2022-09-13T15:02:20;13.50;;;1.47;;
4174;SDS011;2101;48.290;14.382;2022-09-13T15:04:49;14.57;;;1.67;;
4174;SDS011;2101;48.290;14.382;2022-09-13T15:07:26;14.73;;;2.00;;
4174;SDS011;2101;48.290;14.382;2022-09-13T15:12:35;13.57;;;1.50;;
4174;SDS011;2101;48.290;14.382;2022-09-13T15:17:49;19.60;;;2.30;;
4174;SDS011;2101;48.290;14.382;2022-09-13T15:20:16;15.17;;;1.93;;
4174;SDS011;2101;48.290;14.382;2022-09-13T15:22:42;18.27;;;1.87;;
4174;SDS011;2101;48.290;14.382;2022-09-13T15:28:04;15.40;;;1.70;;
4174;SDS011;2101;48.290;14.382;2022-09-13T15:30:31;14.17;;;1.60;;
4174;SDS011;2101;48.290;14.382;2022-09-13T15:33:03;17.00;;;3.17;;
4174;SDS011;2101;48.290;14.382;2022-09-13T15:35:33;16.80;;;2.47;;
4174;SDS011;2101;48.290;14.382;2022-09-13T15:38:01;16.77;;;2.83;;
4174;SDS011;2101;48.290;14.382;2022-09-13T15:40:28;17.87;;;2.70;;
4174;SDS011;2101;48.290;14.382;2022-09-13T15:42:54;18.87;;;3.17;;
4174;SDS011;2101;48.290;14.382;2022-09-13T15:45:21;20.80;;;3.47;;
4174;SDS011;2101;48.290;14.382;2022-09-13T15:47:49;14.77;;;2.53;;
4174;SDS011;2101;48.290;14.382;2022-09-13T15:50:19;15.17;;;2.20;;
4174;SDS011;2101;48.290;14.382;2022-09-13T15:52:45;15.20;;;1.77;;
4174;SDS011;2101;48.290;14.382;2022-09-13T15:55:11;14.90;;;2.13;;
4174;SDS011;2101;48.290;14.382;2022-09-13T15:57:37;15.00;;;2.40;;
4174;SDS011;2101;48.290;14.382;2022-09-13T16:00:05;14.27;;;1.53;;
4174;SDS011;2101;48.290;14.382;2022-09-13T16:02:31;14.90;;;1.93;;
4174;SDS011;2101;48.290;14.382;2022-09-13T16:04:57;17.60;;;2.50;;
4174;SDS011;2101;48.290;14.382;2022-09-13T16:07:24;15.90;;;2.43;;
4174;SDS011;2101;48.290;14.382;2022-09-13T16:09:50;16.47;;;2.10;;
4174;SDS011;2101;48.290;14.382;2022-09-13T16:12:17;15.37;;;2.20;;
4174;SDS011;2101;48.290;14.382;2022-09-13T16:14:43;15.60;;;2.00;;
4174;SDS011;2101;48.290;14.382;2022-09-13T16:17:11;19.30;;;2.23;;
4174;SDS011;2101;48.290;14.382;2022-09-13T16:19:37;19.03;;;2.30;;
4174;SDS011;2101;48.290;14.382;2022-09-13T16:22:03;20.03;;;2.47;;
4174;SDS011;2101;48.290;14.382;2022-09-13T16:24:29;21.20;;;2.40;;
4174;SDS011;2101;48.290;14.382;2022-09-13T16:26:58;15.30;;;2.27;;
4174;SDS011;2101;48.290;14.382;2022-09-13T16:29:25;17.17;;;2.70;;
4174;SDS011;2101;48.290;14.382;2022-09-13T16:31:51;19.17;;;2.60;;
4174;SDS011;2101;48.290;14.382;2022-09-13T16:34:17;15.83;;;2.27;;
4174;SDS011;2101;48.290;14.382;2022-09-13T16:36:44;14.00;;;1.73;;
4174;SDS011;2101;48.290;14.382;2022-09-13T16:39:10;26.03;;;2.60;;
4174;SDS011;2101;48.290;14.382;2022-09-13T16:41:37;18.53;;;2.50;;
4174;SDS011;2101;48.290;14.382;2022-09-13T16:44:04;16.20;;;2.33;;
4174;SDS011;2101;48.290;14.382;2022-09-13T16:46:30;24.97;;;2.47;;
4174;SDS011;2101;48.290;14.382;2022-09-13T16:48:56;17.07;;;3.13;;
4174;SDS011;2101;48.290;14.382;2022-09-13T16:51:23;24.10;;;3.07;;
4174;SDS011;2101;48.290;14.382;2022-09-13T16:53:49;18.17;;;2.80;;
4174;SDS011;2101;48.290;14.382;2022-09-13T16:56:16;21.63;;;3.03;;
4174;SDS011;2101;48.290;14.382;2022-09-13T16:58:44;16.83;;;2.60;;
4174;SDS011;2101;48.290;14.382;2022-09-13T17:01:12;17.13;;;2.77;;
4174;SDS011;2101;48.290;14.382;2022-09-13T17:03:38;24.80;;;5.10;;
4174;SDS011;2101;48.290;14.382;2022-09-13T17:06:05;19.83;;;4.40;;
4174;SDS011;2101;48.290;14.382;2022-09-13T17:08:32;18.60;;;3.73;;
4174;SDS011;2101;48.290;14.382;2022-09-13T17:10:59;19.30;;;4.03;;
4174;SDS011;2101;48.290;14.382;2022-09-13T17:13:25;19.40;;;3.73;;
4174;SDS011;2101;48.290;14.382;2022-09-13T17:15:51;16.90;;;3.23;;
4174;SDS011;2101;48.290;14.382;2022-09-13T17:18:17;16.83;;;3.40;;
4174;SDS011;2101;48.290;14.382;2022-09-13T17:20:47;21.00;;;3.67;;
4174;SDS011;2101;48.290;14.382;2022-09-13T17:23:13;16.90;;;3.20;;
4174;SDS011;2101;48.290;14.382;2022-09-13T17:25:40;23.33;;;3.67;;
4174;SDS011;2101;48.290;14.382;2022-09-13T17:28:16;17.63;;;2.67;;
4174;SDS011;2101;48.290;14.382;2022-09-13T17:30:44;18.63;;;2.53;;
4174;SDS011;2101;48.290;14.382;2022-09-13T17:33:10;15.63;;;1.90;;
4174;SDS011;2101;48.290;14.382;2022-09-13T17:35:37;17.97;;;2.60;;
4174;SDS011;2101;48.290;14.382;2022-09-13T17:38:03;16.20;;;2.70;;
4174;SDS011;2101;48.290;14.382;2022-09-13T17:40:29;19.60;;;2.63;;
4174;SDS011;2101;48.290;14.382;2022-09-13T17:42:55;16.00;;;2.50;;
4174;SDS011;2101;48.290;14.382;2022-09-13T17:45:22;20.93;;;2.83;;
4174;SDS011;2101;48.290;14.382;2022-09-13T17:47:51;21.10;;;5.10;;
4174;SDS011;2101;48.290;14.382;2022-09-13T17:50:17;23.43;;;6.40;;
4174;SDS011;2101;48.290;14.382;2022-09-13T17:52:43;21.97;;;5.10;;